sensor_id;sensor_type;location;lat;lon;timestamp;P1;durP1;ratioP1;P2;durP2;ratioP2
25535;SDS011;13431;51.352;6.412;2022-12-29T00:01:44;1.13;;;0.80;;
25535;SDS011;13431;51.352;6.412;2022-12-29T00:04:12;1.80;;;0.85;;
25535;SDS011;13431;51.352;6.412;2022-12-29T00:06:42;0.65;;;0.65;;
25535;SDS011;13431;51.352;6.412;2022-12-29T00:09:12;1.05;;;0.60;;
25535;SDS011;13431;51.352;6.412;2022-12-29T00:11:41;0.70;;;0.70;;
25535;SDS011;13431;51.352;6.412;2022-12-29T00:14:09;0.63;;;0.60;;
25535;SDS011;13431;51.352;6.412;2022-12-29T00:16:56;0.82;;;0.82;;
25535;SDS011;13431;51.352;6.412;2022-12-29T00:19:23;0.77;;;0.77;;
25535;SDS011;13431;51.352;6.412;2022-12-29T00:22:10;0.60;;;0.60;;
25535;SDS011;13431;51.352;6.412;2022-12-29T00:24:57;1.02;;;0.60;;
25535;SDS011;13431;51.352;6.412;2022-12-29T00:27:43;1.10;;;0.70;;
25535;SDS011;13431;51.352;6.412;2022-12-29T00:30:33;0.50;;;0.50;;
25535;SDS011;13431;51.352;6.412;2022-12-29T00:33:22;0.60;;;0.60;;
25535;SDS011;13431;51.352;6.412;2022-12-29T00:36:15;0.65;;;0.63;;
25535;SDS011;13431;51.352;6.412;2022-12-29T00:39:28;0.95;;;0.70;;
25535;SDS011;13431;51.352;6.412;2022-12-29T00:42:09;0.80;;;0.52;;
25535;SDS011;13431;51.352;6.412;2022-12-29T00:45:05;0.50;;;0.50;;
25535;SDS011;13431;51.352;6.412;2022-12-29T00:47:33;1.85;;;0.60;;
25535;SDS011;13431;51.352;6.412;2022-12-29T00:50:00;1.27;;;0.73;;
25535;SDS011;13431;51.352;6.412;2022-12-29T00:52:27;0.63;;;0.63;;
25535;SDS011;13431;51.352;6.412;2022-12-29T00:54:55;1.98;;;0.82;;
25535;SDS011;13431;51.352;6.412;2022-12-29T00:57:23;0.90;;;0.90;;
25535;SDS011;13431;51.352;6.412;2022-12-29T00:59:50;0.80;;;0.80;;
25535;SDS011;13431;51.352;6.412;2022-12-29T01:02:17;0.73;;;0.73;;
25535;SDS011;13431;51.352;6.412;2022-12-29T01:04:46;0.70;;;0.70;;
25535;SDS011;13431;51.352;6.412;2022-12-29T01:07:15;0.90;;;0.60;;
25535;SDS011;13431;51.352;6.412;2022-12-29T01:09:44;0.63;;;0.63;;
25535;SDS011;13431;51.352;6.412;2022-12-29T01:12:30;0.50;;;0.50;;
25535;SDS011;13431;51.352;6.412;2022-12-29T01:15:12;0.63;;;0.50;;
25535;SDS011;13431;51.352;6.412;2022-12-29T01:17:41;0.50;;;0.50;;
25535;SDS011;13431;51.352;6.412;2022-12-29T01:20:09;0.80;;;0.80;;
25535;SDS011;13431;51.352;6.412;2022-12-29T01:22:37;0.88;;;0.60;;
25535;SDS011;13431;51.352;6.412;2022-12-29T01:25:05;0.50;;;0.50;;
25535;SDS011;13431;51.352;6.412;2022-12-29T01:27:34;0.57;;;0.57;;
25535;SDS011;13431;51.352;6.412;2022-12-29T01:30:01;0.85;;;0.60;;
25535;SDS011;13431;51.352;6.412;2022-12-29T01:32:31;1.35;;;0.47;;
25535;SDS011;13431;51.352;6.412;2022-12-29T01:34:58;0.85;;;0.57;;
25535;SDS011;13431;51.352;6.412;2022-12-29T01:37:26;0.50;;;0.50;;
25535;SDS011;13431;51.352;6.412;2022-12-29T01:39:53;0.57;;;0.50;;
25535;SDS011;13431;51.352;6.412;2022-12-29T01:42:22;0.65;;;0.63;;
25535;SDS011;13431;51.352;6.412;2022-12-29T01:50:07;0.75;;;0.63;;
25535;SDS011;13431;51.352;6.412;2022-12-29T01:52:53;0.70;;;0.70;;
25535;SDS011;13431;51.352;6.412;2022-12-29T01:55:25;1.63;;;0.98;;
25535;SDS011;13431;51.352;6.412;2022-12-29T01:57:55;1.48;;;0.60;;
25535;SDS011;13431;51.352;6.412;2022-12-29T02:00:25;0.73;;;0.73;;
25535;SDS011;13431;51.352;6.412;2022-12-29T02:02:53;0.70;;;0.70;;
25535;SDS011;13431;51.352;6.412;2022-12-29T02:05:32;1.23;;;0.60;;
25535;SDS011;13431;51.352;6.412;2022-12-29T02:08:21;0.95;;;0.73;;
25535;SDS011;13431;51.352;6.412;2022-12-29T02:10:51;1.33;;;0.93;;
25535;SDS011;13431;51.352;6.412;2022-12-29T02:13:23;0.93;;;0.60;;
25535;SDS011;13431;51.352;6.412;2022-12-29T02:15:56;0.93;;;0.80;;
25535;SDS011;13431;51.352;6.412;2022-12-29T02:24:33;0.85;;;0.63;;
25535;SDS011;13431;51.352;6.412;2022-12-29T02:27:23;2.08;;;0.85;;
25535;SDS011;13431;51.352;6.412;2022-12-29T02:36:20;1.88;;;1.33;;
25535;SDS011;13431;51.352;6.412;2022-12-29T02:39:02;0.80;;;0.80;;
25535;SDS011;13431;51.352;6.412;2022-12-29T02:44:15;1.27;;;0.75;;
25535;SDS011;13431;51.352;6.412;2022-12-29T02:47:02;2.17;;;1.20;;
25535;SDS011;13431;51.352;6.412;2022-12-29T02:49:57;1.52;;;0.80;;
25535;SDS011;13431;51.352;6.412;2022-12-29T02:52:37;3.22;;;1.30;;
25535;SDS011;13431;51.352;6.412;2022-12-29T02:55:11;0.70;;;0.70;;
25535;SDS011;13431;51.352;6.412;2022-12-29T02:57:38;0.88;;;0.70;;
25535;SDS011;13431;51.352;6.412;2022-12-29T03:08:48;1.13;;;0.70;;
25535;SDS011;13431;51.352;6.412;2022-12-29T03:11:22;1.58;;;0.75;;
25535;SDS011;13431;51.352;6.412;2022-12-29T03:15:28;0.75;;;0.70;;
25535;SDS011;13431;51.352;6.412;2022-12-29T03:20:24;1.50;;;0.80;;
25535;SDS011;13431;51.352;6.412;2022-12-29T03:22:58;1.02;;;0.82;;
25535;SDS011;13431;51.352;6.412;2022-12-29T03:25:32;2.53;;;0.70;;
25535;SDS011;13431;51.352;6.412;2022-12-29T03:28:06;2.17;;;0.95;;
25535;SDS011;13431;51.352;6.412;2022-12-29T03:30:42;3.28;;;1.00;;
25535;SDS011;13431;51.352;6.412;2022-12-29T03:33:14;0.80;;;0.80;;
25535;SDS011;13431;51.352;6.412;2022-12-29T03:35:47;0.98;;;0.88;;
25535;SDS011;13431;51.352;6.412;2022-12-29T03:38:23;2.10;;;0.73;;
25535;SDS011;13431;51.352;6.412;2022-12-29T03:41:12;0.90;;;0.70;;
25535;SDS011;13431;51.352;6.412;2022-12-29T03:43:44;1.02;;;0.60;;
25535;SDS011;13431;51.352;6.412;2022-12-29T03:46:12;0.90;;;0.80;;
25535;SDS011;13431;51.352;6.412;2022-12-29T03:48:41;3.50;;;1.08;;
25535;SDS011;13431;51.352;6.412;2022-12-29T03:51:09;0.90;;;0.82;;
25535;SDS011;13431;51.352;6.412;2022-12-29T03:53:36;0.88;;;0.80;;
25535;SDS011;13431;51.352;6.412;2022-12-29T03:56:03;0.73;;;0.70;;
25535;SDS011;13431;51.352;6.412;2022-12-29T03:58:32;0.77;;;0.60;;
25535;SDS011;13431;51.352;6.412;2022-12-29T04:01:18;1.42;;;1.08;;
25535;SDS011;13431;51.352;6.412;2022-12-29T04:03:47;0.77;;;0.70;;
25535;SDS011;13431;51.352;6.412;2022-12-29T04:06:15;0.52;;;0.52;;
25535;SDS011;13431;51.352;6.412;2022-12-29T04:08:50;1.05;;;1.05;;
25535;SDS011;13431;51.352;6.412;2022-12-29T04:11:18;1.55;;;1.08;;
25535;SDS011;13431;51.352;6.412;2022-12-29T04:13:45;1.17;;;0.75;;
25535;SDS011;13431;51.352;6.412;2022-12-29T04:16:17;0.73;;;0.70;;
25535;SDS011;13431;51.352;6.412;2022-12-29T04:18:44;1.55;;;0.82;;
25535;SDS011;13431;51.352;6.412;2022-12-29T04:21:12;1.98;;;0.73;;
25535;SDS011;13431;51.352;6.412;2022-12-29T04:23:41;1.77;;;0.77;;
25535;SDS011;13431;51.352;6.412;2022-12-29T04:26:09;0.77;;;0.77;;
25535;SDS011;13431;51.352;6.412;2022-12-29T04:28:56;1.05;;;0.60;;
25535;SDS011;13431;51.352;6.412;2022-12-29T04:31:37;1.42;;;0.60;;
25535;SDS011;13431;51.352;6.412;2022-12-29T04:34:06;2.28;;;0.90;;
25535;SDS011;13431;51.352;6.412;2022-12-29T04:36:33;0.93;;;0.60;;
25535;SDS011;13431;51.352;6.412;2022-12-29T04:39:01;0.63;;;0.63;;
25535;SDS011;13431;51.352;6.412;2022-12-29T04:41:28;0.93;;;0.65;;
25535;SDS011;13431;51.352;6.412;2022-12-29T04:43:56;0.75;;;0.65;;
25535;SDS011;13431;51.352;6.412;2022-12-29T04:46:23;0.95;;;0.60;;
25535;SDS011;13431;51.352;6.412;2022-12-29T04:49:03;1.23;;;0.63;;
25535;SDS011;13431;51.352;6.412;2022-12-29T04:51:54;1.05;;;0.80;;
25535;SDS011;13431;51.352;6.412;2022-12-29T04:54:22;0.93;;;0.60;;
25535;SDS011;13431;51.352;6.412;2022-12-29T04:57:05;2.65;;;0.90;;
25535;SDS011;13431;51.352;6.412;2022-12-29T04:59:34;2.58;;;1.00;;
25535;SDS011;13431;51.352;6.412;2022-12-29T05:02:01;1.98;;;0.80;;
25535;SDS011;13431;51.352;6.412;2022-12-29T05:04:29;2.50;;;0.88;;
25535;SDS011;13431;51.352;6.412;2022-12-29T05:06:57;0.80;;;0.70;;
25535;SDS011;13431;51.352;6.412;2022-12-29T05:09:24;1.00;;;0.82;;
25535;SDS011;13431;51.352;6.412;2022-12-29T05:11:52;1.63;;;0.80;;
25535;SDS011;13431;51.352;6.412;2022-12-29T05:14:19;1.60;;;0.98;;
25535;SDS011;13431;51.352;6.412;2022-12-29T05:16:47;2.78;;;0.93;;
25535;SDS011;13431;51.352;6.412;2022-12-29T05:19:14;1.60;;;1.50;;
25535;SDS011;13431;51.352;6.412;2022-12-29T05:21:44;3.55;;;1.00;;
25535;SDS011;13431;51.352;6.412;2022-12-29T05:24:11;2.15;;;0.70;;
25535;SDS011;13431;51.352;6.412;2022-12-29T05:26:40;1.95;;;0.70;;
25535;SDS011;13431;51.352;6.412;2022-12-29T05:29:28;1.77;;;0.70;;
25535;SDS011;13431;51.352;6.412;2022-12-29T05:31:55;1.67;;;0.70;;
25535;SDS011;13431;51.352;6.412;2022-12-29T05:34:23;2.53;;;0.88;;
25535;SDS011;13431;51.352;6.412;2022-12-29T05:36:50;1.00;;;0.88;;
25535;SDS011;13431;51.352;6.412;2022-12-29T05:39:18;3.25;;;0.95;;
25535;SDS011;13431;51.352;6.412;2022-12-29T05:41:51;2.35;;;0.70;;
25535;SDS011;13431;51.352;6.412;2022-12-29T05:44:25;1.05;;;0.80;;
25535;SDS011;13431;51.352;6.412;2022-12-29T05:47:11;1.88;;;1.08;;
25535;SDS011;13431;51.352;6.412;2022-12-29T05:49:45;2.38;;;0.82;;
25535;SDS011;13431;51.352;6.412;2022-12-29T05:52:31;2.25;;;0.85;;
25535;SDS011;13431;51.352;6.412;2022-12-29T05:54:59;0.63;;;0.60;;
25535;SDS011;13431;51.352;6.412;2022-12-29T05:57:29;1.08;;;0.90;;
25535;SDS011;13431;51.352;6.412;2022-12-29T06:00:05;3.35;;;0.95;;
25535;SDS011;13431;51.352;6.412;2022-12-29T06:02:40;3.17;;;0.90;;
25535;SDS011;13431;51.352;6.412;2022-12-29T06:05:08;2.13;;;0.70;;
25535;SDS011;13431;51.352;6.412;2022-12-29T06:07:36;2.67;;;0.80;;
25535;SDS011;13431;51.352;6.412;2022-12-29T06:10:07;1.65;;;0.95;;
25535;SDS011;13431;51.352;6.412;2022-12-29T06:12:45;1.75;;;0.82;;
25535;SDS011;13431;51.352;6.412;2022-12-29T06:15:14;3.38;;;0.98;;
25535;SDS011;13431;51.352;6.412;2022-12-29T06:17:42;2.22;;;0.90;;
25535;SDS011;13431;51.352;6.412;2022-12-29T06:20:10;2.55;;;1.08;;
25535;SDS011;13431;51.352;6.412;2022-12-29T06:22:38;5.25;;;2.08;;
25535;SDS011;13431;51.352;6.412;2022-12-29T06:25:06;2.90;;;0.80;;
25535;SDS011;13431;51.352;6.412;2022-12-29T06:27:34;1.38;;;0.80;;
25535;SDS011;13431;51.352;6.412;2022-12-29T06:30:02;1.95;;;0.80;;
25535;SDS011;13431;51.352;6.412;2022-12-29T06:32:30;2.30;;;1.02;;
25535;SDS011;13431;51.352;6.412;2022-12-29T06:35:04;2.28;;;1.05;;
25535;SDS011;13431;51.352;6.412;2022-12-29T06:37:39;1.00;;;0.90;;
25535;SDS011;13431;51.352;6.412;2022-12-29T06:40:07;2.42;;;0.90;;
25535;SDS011;13431;51.352;6.412;2022-12-29T06:42:53;1.52;;;0.93;;
25535;SDS011;13431;51.352;6.412;2022-12-29T06:45:39;2.53;;;0.80;;
25535;SDS011;13431;51.352;6.412;2022-12-29T06:48:07;2.88;;;1.00;;
25535;SDS011;13431;51.352;6.412;2022-12-29T06:50:35;5.80;;;1.55;;
25535;SDS011;13431;51.352;6.412;2022-12-29T06:53:02;2.47;;;1.25;;
25535;SDS011;13431;51.352;6.412;2022-12-29T06:55:29;4.43;;;1.15;;
25535;SDS011;13431;51.352;6.412;2022-12-29T06:57:57;4.95;;;0.85;;
25535;SDS011;13431;51.352;6.412;2022-12-29T07:00:25;3.40;;;1.20;;
25535;SDS011;13431;51.352;6.412;2022-12-29T07:02:54;3.75;;;1.15;;
25535;SDS011;13431;51.352;6.412;2022-12-29T07:05:22;4.18;;;0.73;;
25535;SDS011;13431;51.352;6.412;2022-12-29T07:07:49;2.65;;;1.02;;
25535;SDS011;13431;51.352;6.412;2022-12-29T07:10:17;1.65;;;0.98;;
25535;SDS011;13431;51.352;6.412;2022-12-29T07:12:44;4.35;;;1.10;;
25535;SDS011;13431;51.352;6.412;2022-12-29T07:15:11;2.67;;;0.95;;
25535;SDS011;13431;51.352;6.412;2022-12-29T07:17:39;2.35;;;1.20;;
25535;SDS011;13431;51.352;6.412;2022-12-29T07:20:07;3.28;;;1.48;;
25535;SDS011;13431;51.352;6.412;2022-12-29T07:22:35;2.58;;;1.23;;
25535;SDS011;13431;51.352;6.412;2022-12-29T07:25:02;5.82;;;1.33;;
25535;SDS011;13431;51.352;6.412;2022-12-29T07:27:30;5.07;;;1.50;;
25535;SDS011;13431;51.352;6.412;2022-12-29T07:29:57;4.75;;;1.73;;
25535;SDS011;13431;51.352;6.412;2022-12-29T07:32:24;2.13;;;1.02;;
25535;SDS011;13431;51.352;6.412;2022-12-29T07:34:52;5.28;;;1.27;;
25535;SDS011;13431;51.352;6.412;2022-12-29T07:37:20;3.78;;;1.75;;
25535;SDS011;13431;51.352;6.412;2022-12-29T07:39:47;4.07;;;1.35;;
25535;SDS011;13431;51.352;6.412;2022-12-29T07:42:14;4.47;;;1.48;;
25535;SDS011;13431;51.352;6.412;2022-12-29T07:44:49;6.45;;;1.92;;
25535;SDS011;13431;51.352;6.412;2022-12-29T07:47:30;3.38;;;1.48;;
25535;SDS011;13431;51.352;6.412;2022-12-29T07:49:57;3.80;;;1.25;;
25535;SDS011;13431;51.352;6.412;2022-12-29T07:52:24;3.30;;;1.17;;
25535;SDS011;13431;51.352;6.412;2022-12-29T07:54:52;5.60;;;1.80;;
25535;SDS011;13431;51.352;6.412;2022-12-29T07:57:19;4.30;;;1.80;;
25535;SDS011;13431;51.352;6.412;2022-12-29T07:59:53;4.40;;;1.10;;
25535;SDS011;13431;51.352;6.412;2022-12-29T08:02:21;4.30;;;1.80;;
25535;SDS011;13431;51.352;6.412;2022-12-29T08:04:49;3.90;;;2.13;;
25535;SDS011;13431;51.352;6.412;2022-12-29T08:07:16;4.40;;;1.85;;
25535;SDS011;13431;51.352;6.412;2022-12-29T08:09:44;4.97;;;2.10;;
25535;SDS011;13431;51.352;6.412;2022-12-29T08:12:11;4.70;;;1.33;;
25535;SDS011;13431;51.352;6.412;2022-12-29T08:14:38;3.08;;;1.50;;
25535;SDS011;13431;51.352;6.412;2022-12-29T08:17:06;3.55;;;1.52;;
25535;SDS011;13431;51.352;6.412;2022-12-29T08:19:33;4.65;;;1.30;;
25535;SDS011;13431;51.352;6.412;2022-12-29T08:22:00;3.03;;;1.17;;
25535;SDS011;13431;51.352;6.412;2022-12-29T08:24:28;1.58;;;1.15;;
25535;SDS011;13431;51.352;6.412;2022-12-29T08:26:55;4.32;;;1.25;;
25535;SDS011;13431;51.352;6.412;2022-12-29T08:29:22;5.70;;;1.65;;
25535;SDS011;13431;51.352;6.412;2022-12-29T08:31:51;3.85;;;1.27;;
25535;SDS011;13431;51.352;6.412;2022-12-29T08:34:18;3.42;;;1.17;;
25535;SDS011;13431;51.352;6.412;2022-12-29T08:36:45;4.53;;;1.42;;
25535;SDS011;13431;51.352;6.412;2022-12-29T08:39:12;4.80;;;1.30;;
25535;SDS011;13431;51.352;6.412;2022-12-29T08:41:40;4.88;;;1.90;;
25535;SDS011;13431;51.352;6.412;2022-12-29T08:44:07;3.10;;;1.05;;
25535;SDS011;13431;51.352;6.412;2022-12-29T08:46:35;6.25;;;1.52;;
25535;SDS011;13431;51.352;6.412;2022-12-29T08:49:02;4.50;;;1.38;;
25535;SDS011;13431;51.352;6.412;2022-12-29T08:51:29;3.00;;;1.17;;
25535;SDS011;13431;51.352;6.412;2022-12-29T08:53:58;6.55;;;1.77;;
25535;SDS011;13431;51.352;6.412;2022-12-29T08:56:25;4.88;;;2.13;;
25535;SDS011;13431;51.352;6.412;2022-12-29T08:58:55;3.92;;;1.10;;
25535;SDS011;13431;51.352;6.412;2022-12-29T09:01:24;3.70;;;1.38;;
25535;SDS011;13431;51.352;6.412;2022-12-29T09:03:52;4.88;;;1.10;;
25535;SDS011;13431;51.352;6.412;2022-12-29T09:06:41;2.20;;;1.27;;
25535;SDS011;13431;51.352;6.412;2022-12-29T09:09:08;5.55;;;1.05;;
25535;SDS011;13431;51.352;6.412;2022-12-29T09:11:36;6.70;;;1.42;;
25535;SDS011;13431;51.352;6.412;2022-12-29T09:14:04;3.15;;;1.35;;
25535;SDS011;13431;51.352;6.412;2022-12-29T09:16:31;6.07;;;1.83;;
25535;SDS011;13431;51.352;6.412;2022-12-29T09:18:59;5.45;;;2.15;;
25535;SDS011;13431;51.352;6.412;2022-12-29T09:21:27;6.30;;;1.42;;
25535;SDS011;13431;51.352;6.412;2022-12-29T09:23:54;5.28;;;1.80;;
25535;SDS011;13431;51.352;6.412;2022-12-29T09:26:21;3.47;;;2.08;;
25535;SDS011;13431;51.352;6.412;2022-12-29T09:28:49;1.65;;;1.10;;
25535;SDS011;13431;51.352;6.412;2022-12-29T09:31:16;6.07;;;1.95;;
25535;SDS011;13431;51.352;6.412;2022-12-29T09:33:43;7.43;;;1.50;;
25535;SDS011;13431;51.352;6.412;2022-12-29T09:36:11;6.50;;;1.80;;
25535;SDS011;13431;51.352;6.412;2022-12-29T09:38:38;5.70;;;2.05;;
25535;SDS011;13431;51.352;6.412;2022-12-29T09:41:24;6.43;;;1.55;;
25535;SDS011;13431;51.352;6.412;2022-12-29T09:46:52;4.75;;;1.77;;
25535;SDS011;13431;51.352;6.412;2022-12-29T09:49:29;7.22;;;1.50;;
25535;SDS011;13431;51.352;6.412;2022-12-29T09:52:12;6.07;;;2.53;;
25535;SDS011;13431;51.352;6.412;2022-12-29T09:54:50;5.30;;;1.23;;
25535;SDS011;13431;51.352;6.412;2022-12-29T10:00:17;3.58;;;1.52;;
25535;SDS011;13431;51.352;6.412;2022-12-29T10:02:48;5.15;;;1.55;;
25535;SDS011;13431;51.352;6.412;2022-12-29T10:05:26;3.47;;;1.90;;
25535;SDS011;13431;51.352;6.412;2022-12-29T10:08:19;3.78;;;1.50;;
25535;SDS011;13431;51.352;6.412;2022-12-29T10:25:26;6.93;;;1.83;;
25535;SDS011;13431;51.352;6.412;2022-12-29T10:27:59;5.20;;;1.98;;
25535;SDS011;13431;51.352;6.412;2022-12-29T10:30:33;5.30;;;1.88;;
25535;SDS011;13431;51.352;6.412;2022-12-29T10:33:02;4.22;;;1.48;;
25535;SDS011;13431;51.352;6.412;2022-12-29T10:35:34;7.38;;;1.80;;
25535;SDS011;13431;51.352;6.412;2022-12-29T10:38:20;4.90;;;1.88;;
25535;SDS011;13431;51.352;6.412;2022-12-29T10:41:11;4.28;;;1.52;;
25535;SDS011;13431;51.352;6.412;2022-12-29T10:43:49;5.13;;;1.63;;
25535;SDS011;13431;51.352;6.412;2022-12-29T10:46:22;3.40;;;1.27;;
25535;SDS011;13431;51.352;6.412;2022-12-29T10:48:54;7.22;;;2.25;;
25535;SDS011;13431;51.352;6.412;2022-12-29T10:51:22;4.95;;;2.00;;
25535;SDS011;13431;51.352;6.412;2022-12-29T10:53:57;4.30;;;1.25;;
25535;SDS011;13431;51.352;6.412;2022-12-29T11:01:54;5.25;;;1.85;;
25535;SDS011;13431;51.352;6.412;2022-12-29T11:07:02;4.25;;;1.33;;
25535;SDS011;13431;51.352;6.412;2022-12-29T11:09:31;7.32;;;2.45;;
25535;SDS011;13431;51.352;6.412;2022-12-29T11:15:13;6.72;;;2.47;;
25535;SDS011;13431;51.352;6.412;2022-12-29T11:17:43;7.25;;;2.17;;
25535;SDS011;13431;51.352;6.412;2022-12-29T11:22:58;3.63;;;1.20;;
25535;SDS011;13431;51.352;6.412;2022-12-29T11:25:26;5.10;;;1.45;;
25535;SDS011;13431;51.352;6.412;2022-12-29T11:27:57;5.40;;;1.80;;
25535;SDS011;13431;51.352;6.412;2022-12-29T11:30:31;6.13;;;1.55;;
25535;SDS011;13431;51.352;6.412;2022-12-29T11:32:59;4.50;;;1.67;;
25535;SDS011;13431;51.352;6.412;2022-12-29T11:35:32;5.10;;;2.10;;
25535;SDS011;13431;51.352;6.412;2022-12-29T11:38:00;6.32;;;2.35;;
25535;SDS011;13431;51.352;6.412;2022-12-29T11:40:29;4.93;;;2.00;;
25535;SDS011;13431;51.352;6.412;2022-12-29T11:42:58;7.15;;;1.40;;
25535;SDS011;13431;51.352;6.412;2022-12-29T11:45:35;7.25;;;1.77;;
25535;SDS011;13431;51.352;6.412;2022-12-29T11:48:07;10.02;;;2.47;;
25535;SDS011;13431;51.352;6.412;2022-12-29T11:50:50;7.85;;;2.03;;
25535;SDS011;13431;51.352;6.412;2022-12-29T11:53:27;7.43;;;2.00;;
25535;SDS011;13431;51.352;6.412;2022-12-29T11:56:16;4.38;;;1.52;;
25535;SDS011;13431;51.352;6.412;2022-12-29T11:58:46;8.23;;;1.60;;
25535;SDS011;13431;51.352;6.412;2022-12-29T12:01:23;4.25;;;1.63;;
25535;SDS011;13431;51.352;6.412;2022-12-29T12:04:15;5.78;;;1.90;;
25535;SDS011;13431;51.352;6.412;2022-12-29T12:07:29;5.85;;;1.58;;
25535;SDS011;13431;51.352;6.412;2022-12-29T12:09:45;11.30;;;2.97;;
25535;SDS011;13431;51.352;6.412;2022-12-29T12:12:27;5.10;;;1.73;;
25535;SDS011;13431;51.352;6.412;2022-12-29T12:15:02;7.60;;;1.50;;
25535;SDS011;13431;51.352;6.412;2022-12-29T12:17:51;6.25;;;1.52;;
25535;SDS011;13431;51.352;6.412;2022-12-29T12:20:26;5.22;;;1.88;;
25535;SDS011;13431;51.352;6.412;2022-12-29T12:25:52;7.25;;;1.52;;
25535;SDS011;13431;51.352;6.412;2022-12-29T12:28:40;8.90;;;2.67;;
25535;SDS011;13431;51.352;6.412;2022-12-29T12:34:21;7.35;;;1.83;;
25535;SDS011;13431;51.352;6.412;2022-12-29T12:37:06;4.93;;;1.80;;
25535;SDS011;13431;51.352;6.412;2022-12-29T12:43:24;5.05;;;1.52;;
25535;SDS011;13431;51.352;6.412;2022-12-29T12:51:18;7.68;;;2.53;;
25535;SDS011;13431;51.352;6.412;2022-12-29T13:10:51;6.78;;;2.35;;
25535;SDS011;13431;51.352;6.412;2022-12-29T13:14:01;5.20;;;1.80;;
25535;SDS011;13431;51.352;6.412;2022-12-29T13:19:19;8.10;;;3.22;;
25535;SDS011;13431;51.352;6.412;2022-12-29T13:22:04;25.08;;;2.95;;
25535;SDS011;13431;51.352;6.412;2022-12-29T13:30:20;10.18;;;2.33;;
25535;SDS011;13431;51.352;6.412;2022-12-29T13:33:03;5.30;;;2.55;;
25535;SDS011;13431;51.352;6.412;2022-12-29T13:38:17;7.32;;;1.90;;
25535;SDS011;13431;51.352;6.412;2022-12-29T13:40:47;6.18;;;1.75;;
25535;SDS011;13431;51.352;6.412;2022-12-29T13:43:19;4.75;;;1.77;;
25535;SDS011;13431;51.352;6.412;2022-12-29T13:48:55;3.95;;;1.50;;
25535;SDS011;13431;51.352;6.412;2022-12-29T13:51:26;6.53;;;1.63;;
25535;SDS011;13431;51.352;6.412;2022-12-29T13:54:00;4.75;;;1.42;;
25535;SDS011;13431;51.352;6.412;2022-12-29T13:56:43;4.47;;;1.55;;
25535;SDS011;13431;51.352;6.412;2022-12-29T13:59:18;7.40;;;1.42;;
25535;SDS011;13431;51.352;6.412;2022-12-29T14:04:28;5.95;;;2.10;;
25535;SDS011;13431;51.352;6.412;2022-12-29T14:07:03;7.20;;;2.28;;
25535;SDS011;13431;51.352;6.412;2022-12-29T14:09:49;8.82;;;1.80;;
25535;SDS011;13431;51.352;6.412;2022-12-29T14:12:28;3.75;;;1.67;;
25535;SDS011;13431;51.352;6.412;2022-12-29T14:17:42;7.10;;;1.65;;
25535;SDS011;13431;51.352;6.412;2022-12-29T14:20:18;4.05;;;1.90;;
25535;SDS011;13431;51.352;6.412;2022-12-29T14:23:01;4.95;;;2.13;;
25535;SDS011;13431;51.352;6.412;2022-12-29T14:28:26;6.72;;;1.30;;
25535;SDS011;13431;51.352;6.412;2022-12-29T14:30:59;6.35;;;1.67;;
25535;SDS011;13431;51.352;6.412;2022-12-29T14:33:32;10.43;;;2.92;;
25535;SDS011;13431;51.352;6.412;2022-12-29T14:38:48;5.03;;;1.40;;
25535;SDS011;13431;51.352;6.412;2022-12-29T14:49:20;5.47;;;1.90;;
25535;SDS011;13431;51.352;6.412;2022-12-29T14:51:52;5.45;;;1.25;;
25535;SDS011;13431;51.352;6.412;2022-12-29T14:54:37;8.95;;;1.90;;
25535;SDS011;13431;51.352;6.412;2022-12-29T14:57:19;5.30;;;2.03;;
25535;SDS011;13431;51.352;6.412;2022-12-29T14:59:57;7.32;;;2.00;;
25535;SDS011;13431;51.352;6.412;2022-12-29T15:02:33;3.92;;;1.58;;
25535;SDS011;13431;51.352;6.412;2022-12-29T15:05:05;4.95;;;1.38;;
25535;SDS011;13431;51.352;6.412;2022-12-29T15:07:47;3.22;;;1.55;;
25535;SDS011;13431;51.352;6.412;2022-12-29T15:10:15;4.15;;;1.38;;
25535;SDS011;13431;51.352;6.412;2022-12-29T15:12:51;4.82;;;1.80;;
25535;SDS011;13431;51.352;6.412;2022-12-29T15:20:27;5.25;;;1.73;;
25535;SDS011;13431;51.352;6.412;2022-12-29T15:23:02;5.68;;;1.40;;
25535;SDS011;13431;51.352;6.412;2022-12-29T15:25:35;15.63;;;2.80;;
25535;SDS011;13431;51.352;6.412;2022-12-29T15:28:04;10.93;;;1.83;;
25535;SDS011;13431;51.352;6.412;2022-12-29T15:30:33;8.85;;;1.67;;
25535;SDS011;13431;51.352;6.412;2022-12-29T15:33:01;5.28;;;1.50;;
25535;SDS011;13431;51.352;6.412;2022-12-29T15:38:12;5.50;;;1.98;;
25535;SDS011;13431;51.352;6.412;2022-12-29T15:40:45;4.90;;;2.13;;
25535;SDS011;13431;51.352;6.412;2022-12-29T15:43:17;3.08;;;1.40;;
25535;SDS011;13431;51.352;6.412;2022-12-29T15:46:13;8.32;;;1.73;;
25535;SDS011;13431;51.352;6.412;2022-12-29T15:48:41;5.05;;;1.98;;
25535;SDS011;13431;51.352;6.412;2022-12-29T15:51:18;5.22;;;1.55;;
25535;SDS011;13431;51.352;6.412;2022-12-29T15:53:50;4.18;;;1.55;;
25535;SDS011;13431;51.352;6.412;2022-12-29T15:56:18;3.47;;;1.70;;
25535;SDS011;13431;51.352;6.412;2022-12-29T15:58:47;4.38;;;1.52;;
25535;SDS011;13431;51.352;6.412;2022-12-29T16:03:47;9.02;;;2.28;;
25535;SDS011;13431;51.352;6.412;2022-12-29T16:06:25;6.15;;;2.13;;
25535;SDS011;13431;51.352;6.412;2022-12-29T16:08:56;10.00;;;4.07;;
25535;SDS011;13431;51.352;6.412;2022-12-29T16:14:14;6.53;;;2.28;;
25535;SDS011;13431;51.352;6.412;2022-12-29T16:16:44;8.20;;;2.60;;
25535;SDS011;13431;51.352;6.412;2022-12-29T16:19:26;5.78;;;2.03;;
25535;SDS011;13431;51.352;6.412;2022-12-29T16:21:56;6.22;;;2.15;;
25535;SDS011;13431;51.352;6.412;2022-12-29T16:24:25;5.15;;;2.40;;
25535;SDS011;13431;51.352;6.412;2022-12-29T16:27:07;7.32;;;2.95;;
25535;SDS011;13431;51.352;6.412;2022-12-29T16:29:47;5.78;;;2.10;;
25535;SDS011;13431;51.352;6.412;2022-12-29T16:32:26;9.52;;;4.05;;
25535;SDS011;13431;51.352;6.412;2022-12-29T16:37:39;2.95;;;1.58;;
25535;SDS011;13431;51.352;6.412;2022-12-29T16:42:56;1.60;;;0.60;;
25535;SDS011;13431;51.352;6.412;2022-12-29T16:50:42;0.60;;;0.60;;
25535;SDS011;13431;51.352;6.412;2022-12-29T16:53:26;2.05;;;1.15;;
25535;SDS011;13431;51.352;6.412;2022-12-29T16:55:59;3.97;;;0.85;;
25535;SDS011;13431;51.352;6.412;2022-12-29T16:58:31;1.67;;;0.70;;
25535;SDS011;13431;51.352;6.412;2022-12-29T17:01:00;3.35;;;1.25;;
25535;SDS011;13431;51.352;6.412;2022-12-29T17:03:33;2.88;;;0.85;;
25535;SDS011;13431;51.352;6.412;2022-12-29T17:06:04;1.80;;;1.05;;
25535;SDS011;13431;51.352;6.412;2022-12-29T17:08:39;1.10;;;0.70;;
25535;SDS011;13431;51.352;6.412;2022-12-29T17:11:15;1.60;;;1.02;;
25535;SDS011;13431;51.352;6.412;2022-12-29T17:14:59;3.47;;;1.40;;
25535;SDS011;13431;51.352;6.412;2022-12-29T17:17:24;3.60;;;1.80;;
25535;SDS011;13431;51.352;6.412;2022-12-29T17:22:26;4.82;;;1.23;;
25535;SDS011;13431;51.352;6.412;2022-12-29T17:24:55;4.20;;;1.15;;
25535;SDS011;13431;51.352;6.412;2022-12-29T17:30:10;2.30;;;1.30;;
25535;SDS011;13431;51.352;6.412;2022-12-29T17:32:40;3.75;;;1.40;;
25535;SDS011;13431;51.352;6.412;2022-12-29T17:35:12;4.88;;;1.67;;
25535;SDS011;13431;51.352;6.412;2022-12-29T17:37:41;4.13;;;1.30;;
25535;SDS011;13431;51.352;6.412;2022-12-29T17:40:13;4.68;;;1.30;;
25535;SDS011;13431;51.352;6.412;2022-12-29T17:42:46;3.85;;;1.40;;
25535;SDS011;13431;51.352;6.412;2022-12-29T17:45:19;5.35;;;1.63;;
25535;SDS011;13431;51.352;6.412;2022-12-29T17:47:59;3.55;;;1.20;;
25535;SDS011;13431;51.352;6.412;2022-12-29T17:50:28;3.25;;;1.50;;
25535;SDS011;13431;51.352;6.412;2022-12-29T17:52:58;3.30;;;1.60;;
25535;SDS011;13431;51.352;6.412;2022-12-29T17:55:28;3.53;;;1.90;;
25535;SDS011;13431;51.352;6.412;2022-12-29T17:58:20;4.72;;;2.00;;
25535;SDS011;13431;51.352;6.412;2022-12-29T18:00:56;4.85;;;1.50;;
25535;SDS011;13431;51.352;6.412;2022-12-29T18:03:38;4.60;;;1.30;;
25535;SDS011;13431;51.352;6.412;2022-12-29T18:06:07;6.22;;;2.30;;